HFX weather

Sea Fox 2 Helipad
Ciudad del Carmen, Campeche, Mexico

Public forecast

Using degrees Celsius for public forecast. Weather courtesy of forecast.io.

Closest aviation weather report (METAR) to Sea Fox 2 Helipad

Closest report is Ciudad del Carmen International Airport, 52.5 nm (97.3 km) SSE. Retrieved 2020/02/24 01:41 UTC (1 hour ago):

MMCE 240141Z 36008KT 7SM SKC 23/17 A2998

Closest aviation forecast (TAF) to Sea Fox 2 Helipad

Forecast is more than 6 hours old.

Closest forecast is Ciudad del Carmen International Airport, 52.5 nm (97.3 km) SSE. Retrieved 2020/02/23 18:00 UTC (9 hours ago):

TAF TAF MMCE 231657Z 2318/2418 08015KT P6SM SCT020 SCT230 FM240300 00000KT P6SM BKN020 FM241500 14015KT P6SM SCT020